createdAt,value
2019-03-11T00:00:00.338Z,0
2019-03-11T00:01:12.527Z,0
2019-03-11T00:02:24.726Z,0
2019-03-11T00:03:36.915Z,0
2019-03-11T00:04:49.106Z,0
2019-03-11T00:06:01.365Z,0
2019-03-11T00:07:13.498Z,0
2019-03-11T00:08:25.688Z,0
2019-03-11T00:09:37.885Z,0
2019-03-11T00:10:50.081Z,0
2019-03-11T00:12:02.000Z,0
2019-03-11T00:13:14.586Z,0
2019-03-11T00:14:26.666Z,0
2019-03-11T00:15:38.856Z,0
2019-03-11T00:16:51.057Z,0
2019-03-11T00:18:03.243Z,0
2019-03-11T00:19:15.437Z,0
2019-03-11T00:20:27.063Z,0
2019-03-11T00:21:39.824Z,0
2019-03-11T00:22:52.023Z,0
2019-03-11T00:24:04.021Z,0
2019-03-11T00:25:16.408Z,0
2019-03-11T00:26:28.610Z,0
2019-03-11T00:27:40.798Z,0
2019-03-11T00:28:52.986Z,0
2019-03-11T00:30:05.184Z,0
2019-03-11T00:31:17.376Z,0
2019-03-11T00:32:29.568Z,0
2019-03-11T00:33:41.766Z,0
2019-03-11T00:34:53.956Z,0
2019-03-11T00:36:06.156Z,0
2019-03-11T00:37:18.354Z,0
2019-03-11T00:38:30.547Z,0
2019-03-11T00:39:42.730Z,0
2019-03-11T00:40:54.933Z,0
2019-03-11T00:42:07.013Z,0
2019-03-11T00:43:19.318Z,0
2019-03-11T00:45:43.711Z,0
2019-03-11T00:46:55.897Z,0
2019-03-11T00:48:08.101Z,0
2019-03-11T00:49:20.290Z,0
2019-03-11T00:50:32.482Z,0
2019-03-11T00:51:44.676Z,0
2019-03-11T00:52:56.871Z,0
2019-03-11T00:54:09.067Z,0
2019-03-11T00:55:21.256Z,0
2019-03-11T00:56:33.455Z,0
2019-03-11T00:57:45.646Z,0
2019-03-11T00:58:57.840Z,0
2019-03-11T01:00:10.041Z,0
2019-03-11T01:01:22.228Z,0
2019-03-11T01:02:34.456Z,0
2019-03-11T01:03:46.613Z,0
2019-03-11T01:04:58.806Z,0
2019-03-11T01:06:11.007Z,0
2019-03-11T01:07:23.196Z,0
2019-03-11T01:08:35.392Z,0
2019-03-11T01:09:47.592Z,0
2019-03-11T01:10:59.780Z,0
2019-03-11T01:12:11.977Z,0
2019-03-11T01:13:24.169Z,0
2019-03-11T01:14:36.362Z,0
2019-03-11T01:15:48.567Z,0
2019-03-11T01:17:00.076Z,0
2019-03-11T01:18:12.940Z,0
2019-03-11T01:19:25.137Z,0
2019-03-11T01:20:37.331Z,0
2019-03-11T01:21:49.526Z,0
2019-03-11T01:23:01.719Z,0
2019-03-11T01:24:13.953Z,0
2019-03-11T01:25:26.114Z,0
2019-03-11T01:26:38.306Z,0
2019-03-11T01:27:50.500Z,0
2019-03-11T01:29:02.696Z,0
2019-03-11T01:30:14.889Z,0
2019-03-11T01:31:27.090Z,0
2019-03-11T01:33:51.469Z,0
2019-03-11T01:35:03.066Z,0
2019-03-11T01:36:15.857Z,0
2019-03-11T01:37:28.051Z,0
2019-03-11T01:38:40.244Z,0
2019-03-11T01:39:52.440Z,0
2019-03-11T01:41:04.626Z,0
2019-03-11T01:42:16.826Z,0
2019-03-11T01:43:29.016Z,0
2019-03-11T01:44:41.211Z,0
2019-03-11T01:45:53.409Z,0
2019-03-11T01:47:05.602Z,0
2019-03-11T01:48:17.792Z,0
2019-03-11T01:49:29.993Z,0
2019-03-11T01:50:42.182Z,0
2019-03-11T01:51:54.383Z,0
2019-03-11T01:53:06.571Z,0
2019-03-11T01:54:18.770Z,0
2019-03-11T01:55:30.954Z,0
2019-03-11T01:56:43.167Z,0
2019-03-11T01:57:55.342Z,0
2019-03-11T01:59:07.548Z,0
2019-03-11T02:00:19.733Z,0
2019-03-11T02:01:31.928Z,0
2019-03-11T02:02:44.121Z,0
2019-03-11T02:03:56.313Z,0
2019-03-11T02:05:08.051Z,0
2019-03-11T02:06:20.709Z,0
2019-03-11T02:07:32.895Z,0
2019-03-11T02:08:45.091Z,0
2019-03-11T02:09:57.286Z,0
2019-03-11T02:11:09.492Z,0
2019-03-11T02:12:21.677Z,0
2019-03-11T02:13:33.865Z,0
2019-03-11T02:14:46.073Z,0
2019-03-11T02:15:58.259Z,0
2019-03-11T02:17:10.454Z,0
2019-03-11T02:18:22.064Z,0
2019-03-11T02:19:34.848Z,0
2019-03-11T02:20:47.033Z,0
2019-03-11T02:21:59.227Z,0
2019-03-11T02:23:11.416Z,0
2019-03-11T02:24:23.622Z,0
2019-03-11T02:25:35.858Z,0
2019-03-11T02:26:48.011Z,0
2019-03-11T02:28:00.196Z,0
2019-03-11T02:29:12.397Z,0
2019-03-11T02:30:24.589Z,0
2019-03-11T02:31:36.775Z,0
2019-03-11T02:32:48.973Z,0
2019-03-11T02:34:01.172Z,0
2019-03-11T02:35:13.373Z,0
2019-03-11T02:36:25.055Z,0
2019-03-11T02:37:37.749Z,0
2019-03-11T02:38:49.941Z,0
2019-03-11T02:40:02.138Z,0
2019-03-11T02:41:14.337Z,0
2019-03-11T02:42:26.526Z,0
2019-03-11T02:43:38.007Z,0
2019-03-11T02:44:50.917Z,0
2019-03-11T02:46:03.010Z,0
2019-03-11T02:47:15.311Z,0
2019-03-11T02:48:27.501Z,0
2019-03-11T02:49:39.703Z,0
2019-03-11T02:50:51.887Z,0
2019-03-11T02:52:04.090Z,0
2019-03-11T02:53:16.279Z,0
2019-03-11T02:54:28.473Z,0
2019-03-11T02:55:40.670Z,0
2019-03-11T02:58:05.054Z,0
2019-03-11T02:59:17.248Z,0
2019-03-11T03:00:29.435Z,0
2019-03-11T03:01:41.679Z,0
2019-03-11T03:02:53.828Z,0
2019-03-11T03:04:06.021Z,0
2019-03-11T03:05:18.220Z,0
2019-03-11T03:06:30.409Z,0
2019-03-11T03:07:42.597Z,0
2019-03-11T03:08:54.794Z,0
2019-03-11T03:10:06.988Z,0
2019-03-11T03:11:19.183Z,0
2019-03-11T03:12:31.374Z,0
2019-03-11T03:13:43.575Z,0
2019-03-11T03:14:55.076Z,0
2019-03-11T03:16:07.966Z,0
2019-03-11T03:17:20.149Z,0
2019-03-11T03:18:32.350Z,0
2019-03-11T03:19:44.054Z,0
2019-03-11T03:20:56.736Z,0
2019-03-11T03:22:08.930Z,0
2019-03-11T03:23:21.178Z,0
2019-03-11T03:24:33.314Z,0
2019-03-11T03:25:45.515Z,0
2019-03-11T03:26:57.703Z,0
2019-03-11T03:28:09.904Z,0
2019-03-11T03:29:22.095Z,0
2019-03-11T03:30:34.286Z,0
2019-03-11T03:31:46.483Z,0
2019-03-11T03:32:58.067Z,0
2019-03-11T03:34:10.865Z,0
2019-03-11T03:35:23.072Z,0
2019-03-11T03:36:35.260Z,0
2019-03-11T03:37:47.451Z,0
2019-03-11T03:38:59.644Z,0
2019-03-11T03:40:11.084Z,0
2019-03-11T03:41:24.040Z,0
2019-03-11T03:42:36.234Z,0
2019-03-11T03:43:48.425Z,0
2019-03-11T03:45:00.625Z,0
2019-03-11T03:46:12.820Z,0
2019-03-11T03:47:25.016Z,0
2019-03-11T03:48:37.212Z,0
2019-03-11T03:49:49.402Z,0
2019-03-11T03:51:01.603Z,0
2019-03-11T03:52:13.794Z,0
2019-03-11T03:53:25.995Z,0
2019-03-11T03:54:38.187Z,0
2019-03-11T03:55:50.379Z,0
2019-03-11T03:58:14.077Z,0
2019-03-11T03:59:26.968Z,0
2019-03-11T04:00:39.167Z,0
2019-03-11T04:01:51.368Z,0
2019-03-11T04:03:03.549Z,0
2019-03-11T04:04:15.744Z,0
2019-03-11T04:05:27.950Z,0
2019-03-11T04:06:40.137Z,0
2019-03-11T04:07:52.033Z,0
2019-03-11T04:09:04.534Z,0
2019-03-11T04:10:16.725Z,0
2019-03-11T04:11:28.928Z,0
2019-03-11T04:12:41.122Z,0
2019-03-11T04:13:53.312Z,0
2019-03-11T04:15:05.503Z,0
2019-03-11T04:16:17.708Z,0
2019-03-11T04:17:29.910Z,0
2019-03-11T04:18:42.107Z,0
2019-03-11T04:19:54.284Z,0
2019-03-11T04:21:06.048Z,0
2019-03-11T04:22:18.698Z,0
2019-03-11T04:23:30.877Z,0
2019-03-11T04:24:43.000Z,0
2019-03-11T04:25:55.274Z,0
2019-03-11T04:27:07.461Z,0
2019-03-11T04:28:19.705Z,0
2019-03-11T04:29:31.086Z,0
2019-03-11T04:30:44.054Z,0
2019-03-11T04:31:56.247Z,0
2019-03-11T04:33:08.443Z,0
2019-03-11T04:34:20.643Z,0
2019-03-11T04:35:32.832Z,0
2019-03-11T04:36:45.027Z,0
2019-03-11T04:37:57.000Z,0
2019-03-11T04:39:09.416Z,0
2019-03-11T04:40:21.612Z,0
2019-03-11T04:41:33.806Z,0
2019-03-11T04:42:46.005Z,0
2019-03-11T04:43:58.200Z,0
2019-03-11T04:45:10.394Z,0
2019-03-11T04:46:22.597Z,0
2019-03-11T04:47:34.785Z,0
2019-03-11T04:48:46.992Z,0
2019-03-11T04:49:59.187Z,0
2019-03-11T04:51:11.377Z,0
2019-03-11T04:52:23.573Z,0
2019-03-11T04:53:35.771Z,0
2019-03-11T04:54:47.957Z,0
2019-03-11T04:56:00.161Z,0
2019-03-11T04:57:12.351Z,0
2019-03-11T04:58:24.054Z,0
2019-03-11T04:59:36.739Z,0
2019-03-11T05:00:48.937Z,0
2019-03-11T05:02:01.000Z,0
2019-03-11T05:03:13.331Z,0
2019-03-11T05:04:25.525Z,0
2019-03-11T05:05:37.721Z,0
2019-03-11T05:06:49.941Z,0
2019-03-11T05:08:02.188Z,0
2019-03-11T05:09:14.304Z,0
2019-03-11T05:10:26.537Z,0
2019-03-11T05:11:38.705Z,0
2019-03-11T05:12:50.896Z,0
2019-03-11T05:14:03.171Z,0
2019-03-11T05:15:15.283Z,0
2019-03-11T05:16:27.477Z,0
2019-03-11T05:17:39.000Z,0
2019-03-11T05:18:51.864Z,0
2019-03-11T05:20:04.070Z,0
2019-03-11T05:22:28.458Z,0
2019-03-11T05:23:40.662Z,0
2019-03-11T05:24:52.086Z,0
2019-03-11T05:26:05.046Z,0
2019-03-11T05:27:17.248Z,0
2019-03-11T05:28:29.431Z,0
2019-03-11T05:29:41.636Z,0
2019-03-11T05:30:53.825Z,0
2019-03-11T05:32:06.018Z,0
2019-03-11T05:33:18.220Z,4
2019-03-11T05:34:30.406Z,4
2019-03-11T05:35:42.606Z,4
2019-03-11T05:36:54.805Z,4
2019-03-11T05:38:06.997Z,4
2019-03-11T05:39:19.200Z,4
2019-03-11T05:40:31.039Z,0
2019-03-11T05:42:55.782Z,4
2019-03-11T05:44:07.097Z,4
2019-03-11T05:46:32.372Z,8
2019-03-11T05:47:44.557Z,4
2019-03-11T05:48:56.763Z,4
2019-03-11T05:50:08.953Z,4
2019-03-11T05:52:33.348Z,8
2019-03-11T05:53:45.546Z,8
2019-03-11T05:54:57.736Z,12
2019-03-11T05:56:09.936Z,12
2019-03-11T05:58:34.319Z,16
2019-03-11T05:59:46.524Z,20
2019-03-11T06:00:58.714Z,20
2019-03-11T06:02:10.913Z,20
2019-03-11T06:04:35.301Z,24
2019-03-11T06:05:47.493Z,28
2019-03-11T06:06:59.692Z,28
2019-03-11T06:08:11.008Z,32
2019-03-11T06:10:36.284Z,36
2019-03-11T06:11:48.000Z,36
2019-03-11T06:13:00.675Z,40
2019-03-11T06:14:12.863Z,44
2019-03-11T06:15:25.061Z,44
2019-03-11T06:16:37.261Z,48
2019-03-11T06:17:49.448Z,48
2019-03-11T06:19:01.645Z,52
2019-03-11T06:20:13.848Z,52
2019-03-11T06:22:38.251Z,60
2019-03-11T06:23:50.428Z,60
2019-03-11T06:25:02.623Z,60
2019-03-11T06:26:14.823Z,64
2019-03-11T06:27:27.021Z,64
2019-03-11T06:28:39.211Z,64
2019-03-11T06:29:51.409Z,64
2019-03-11T06:31:03.603Z,68
2019-03-11T06:32:15.801Z,68
2019-03-11T06:33:27.989Z,72
2019-03-11T06:34:40.195Z,68
2019-03-11T06:35:52.386Z,68
2019-03-11T06:37:04.582Z,72
2019-03-11T06:38:16.795Z,76
2019-03-11T06:39:28.974Z,72
2019-03-11T06:40:41.161Z,76
2019-03-11T06:41:53.364Z,76
2019-03-11T06:43:05.560Z,80
2019-03-11T06:44:17.749Z,84
2019-03-11T06:45:29.948Z,84
2019-03-11T06:46:42.014Z,88
2019-03-11T06:47:54.346Z,88
2019-03-11T06:49:06.531Z,88
2019-03-11T06:50:18.735Z,92
2019-03-11T06:51:30.928Z,92
2019-03-11T06:52:43.122Z,96
2019-03-11T06:53:55.031Z,92
2019-03-11T06:55:07.532Z,96
2019-03-11T06:56:19.710Z,96
2019-03-11T06:57:31.905Z,96
2019-03-11T06:58:44.099Z,96
2019-03-11T06:59:56.293Z,96
2019-03-11T07:01:08.489Z,100
2019-03-11T07:02:20.686Z,100
2019-03-11T07:03:32.889Z,100
2019-03-11T07:04:45.077Z,96
2019-03-11T07:05:57.274Z,96
2019-03-11T07:17:23.109Z,96
2019-03-11T07:17:59.238Z,120
2019-03-11T07:19:11.425Z,124
2019-03-11T07:20:23.627Z,132
2019-03-11T07:22:48.011Z,144
2019-03-11T07:24:00.019Z,144
2019-03-11T07:25:12.400Z,152
2019-03-11T07:26:24.601Z,152
2019-03-11T07:27:36.793Z,152
2019-03-11T07:28:48.993Z,152
2019-03-11T07:30:01.194Z,156
2019-03-11T07:31:13.379Z,164
2019-03-11T07:32:25.640Z,176
2019-03-11T07:33:37.773Z,180
2019-03-11T07:34:49.968Z,148
2019-03-11T07:36:02.157Z,132
2019-03-11T07:37:14.353Z,120
2019-03-11T07:38:26.554Z,120
2019-03-11T07:39:38.747Z,128
2019-03-11T07:40:50.937Z,120
2019-03-11T07:42:03.135Z,104
2019-03-11T07:43:15.327Z,92
2019-03-11T07:45:39.007Z,92
2019-03-11T07:46:51.917Z,88
2019-03-11T07:48:04.118Z,88
2019-03-11T07:49:16.309Z,104
2019-03-11T07:50:28.507Z,108
2019-03-11T07:51:40.704Z,116
2019-03-11T07:52:52.902Z,124
2019-03-11T07:55:17.287Z,156
2019-03-11T07:56:29.488Z,136
2019-03-11T07:57:41.818Z,132
2019-03-11T07:58:53.876Z,112
2019-03-11T08:00:06.086Z,96
2019-03-11T08:01:18.276Z,100
2019-03-11T08:02:30.465Z,112
2019-03-11T08:03:42.667Z,104
2019-03-11T08:04:54.861Z,96
2019-03-11T08:06:07.053Z,96
2019-03-11T08:07:19.240Z,108
2019-03-11T08:08:31.438Z,104
2019-03-11T08:10:55.836Z,80
2019-03-11T08:12:08.029Z,76
2019-03-11T08:13:20.229Z,80
2019-03-11T08:14:32.421Z,80
2019-03-11T08:15:44.615Z,84
2019-03-11T08:16:56.817Z,92
2019-03-11T08:18:09.012Z,80
2019-03-11T08:19:21.204Z,84
2019-03-11T08:20:33.396Z,72
2019-03-11T08:22:57.000Z,68
2019-03-11T08:24:09.994Z,64
2019-03-11T08:25:22.191Z,76
2019-03-11T08:26:34.377Z,80
2019-03-11T08:27:46.580Z,76
2019-03-11T08:28:58.770Z,80
2019-03-11T08:30:10.971Z,76
2019-03-11T08:31:23.164Z,84
2019-03-11T08:32:35.364Z,92
2019-03-11T08:33:47.552Z,76
2019-03-11T08:34:59.751Z,76
2019-03-11T08:36:12.005Z,60
2019-03-11T08:37:24.000Z,52
2019-03-11T08:38:36.341Z,48
2019-03-11T08:39:48.536Z,60
2019-03-11T08:41:00.739Z,60
2019-03-11T08:42:12.092Z,76
2019-03-11T08:43:25.126Z,72
2019-03-11T08:44:37.033Z,72
2019-03-11T08:47:01.712Z,68
2019-03-11T08:48:13.909Z,76
2019-03-11T08:49:26.122Z,76
2019-03-11T08:50:38.305Z,76
2019-03-11T08:51:50.508Z,72
2019-03-11T08:53:02.690Z,80
2019-03-11T08:54:14.891Z,92
2019-03-11T08:55:27.001Z,104
2019-03-11T08:56:39.284Z,112
2019-03-11T08:57:51.472Z,116
2019-03-11T08:59:03.672Z,116
2019-03-11T09:00:15.877Z,112
2019-03-11T09:01:28.068Z,120
2019-03-11T09:02:40.256Z,140
2019-03-11T09:03:52.046Z,148
2019-03-11T09:05:04.725Z,136
2019-03-11T09:06:16.842Z,156
2019-03-11T09:07:29.062Z,168
2019-03-11T09:08:41.233Z,176
2019-03-11T09:09:53.426Z,160
2019-03-11T09:11:05.633Z,172
2019-03-11T09:12:17.819Z,152
2019-03-11T09:13:30.019Z,128
2019-03-11T09:14:42.257Z,112
2019-03-11T09:15:54.412Z,100
2019-03-11T09:17:06.000Z,100
2019-03-11T09:18:18.804Z,116
2019-03-11T09:19:31.002Z,128
2019-03-11T09:20:43.000Z,140
2019-03-11T09:21:55.395Z,140
2019-03-11T09:23:07.585Z,148
2019-03-11T09:24:19.778Z,168
2019-03-11T09:25:31.981Z,172
2019-03-11T09:26:44.176Z,188
2019-03-11T09:27:56.379Z,208
2019-03-11T09:29:08.057Z,224
2019-03-11T09:30:20.764Z,240
2019-03-11T09:31:32.096Z,244
2019-03-11T09:32:45.158Z,260
2019-03-11T09:33:57.347Z,260
2019-03-11T09:35:09.561Z,276
2019-03-11T09:36:21.074Z,276
2019-03-11T09:37:33.944Z,284
2019-03-11T09:38:46.132Z,288
2019-03-11T09:39:58.329Z,312
2019-03-11T09:41:10.529Z,320
2019-03-11T09:42:22.722Z,272
2019-03-11T09:43:34.926Z,284
2019-03-11T09:44:47.011Z,280
2019-03-11T09:47:11.504Z,304
2019-03-11T09:48:23.721Z,284
2019-03-11T09:49:35.897Z,288
2019-03-11T09:50:48.000Z,280
2019-03-11T09:52:00.287Z,252
2019-03-11T09:53:12.480Z,228
2019-03-11T09:55:36.087Z,216
2019-03-11T09:56:49.078Z,216
2019-03-11T09:58:01.271Z,196
2019-03-11T09:59:13.460Z,176
2019-03-11T10:00:25.662Z,172
2019-03-11T10:01:37.855Z,164
2019-03-11T10:02:50.006Z,148
2019-03-11T10:04:02.253Z,148
2019-03-11T10:05:14.044Z,144
2019-03-11T10:06:26.651Z,124
2019-03-11T10:07:38.837Z,136
2019-03-11T10:08:51.032Z,136
2019-03-11T10:10:03.241Z,160
2019-03-11T10:11:15.425Z,156
2019-03-11T10:12:27.621Z,140
2019-03-11T10:13:39.809Z,132
2019-03-11T10:14:52.004Z,132
2019-03-11T10:16:04.199Z,148
2019-03-11T10:17:16.402Z,148
2019-03-11T10:18:28.598Z,156
2019-03-11T10:19:40.794Z,164
2019-03-11T10:20:52.991Z,192
2019-03-11T10:22:05.018Z,196
2019-03-11T10:23:17.378Z,204
2019-03-11T10:24:29.058Z,216
2019-03-11T10:25:41.775Z,252
2019-03-11T10:26:53.960Z,260
2019-03-11T10:28:06.175Z,292
2019-03-11T10:29:18.035Z,320
2019-03-11T10:30:30.055Z,312
2019-03-11T10:31:42.754Z,348
2019-03-11T10:32:54.000Z,364
2019-03-11T10:34:07.135Z,380
2019-03-11T10:35:19.336Z,392
2019-03-11T10:36:31.527Z,388
2019-03-11T10:37:43.072Z,380
2019-03-11T10:38:55.925Z,384
2019-03-11T10:40:08.121Z,396
2019-03-11T10:41:20.316Z,408
2019-03-11T10:42:32.501Z,408
2019-03-11T10:43:44.000Z,396
2019-03-11T10:44:56.899Z,380
2019-03-11T10:47:21.297Z,316
2019-03-11T10:48:33.492Z,272
2019-03-11T10:49:45.683Z,248
2019-03-11T10:50:57.878Z,228
2019-03-11T10:52:10.080Z,216
2019-03-11T10:53:22.259Z,184
2019-03-11T10:54:34.483Z,168
2019-03-11T10:55:46.653Z,140
2019-03-11T10:56:58.851Z,112
2019-03-11T10:58:11.050Z,116
2019-03-11T11:00:35.440Z,136
2019-03-11T11:01:47.632Z,112
2019-03-11T11:02:59.826Z,108
2019-03-11T11:04:12.024Z,100
2019-03-11T11:05:24.240Z,88
2019-03-11T11:06:36.420Z,80
2019-03-11T11:07:48.622Z,84
2019-03-11T11:09:00.000Z,92
2019-03-11T11:10:13.001Z,120
2019-03-11T11:11:25.197Z,132
2019-03-11T11:12:37.392Z,120
2019-03-11T11:13:49.589Z,124
2019-03-11T11:15:01.784Z,132
2019-03-11T11:16:13.097Z,128
2019-03-11T11:17:26.181Z,132
2019-03-11T11:18:38.375Z,124
2019-03-11T11:19:50.565Z,116
2019-03-11T11:21:02.760Z,104
2019-03-11T11:22:14.961Z,100
2019-03-11T11:23:27.153Z,108
2019-03-11T11:24:39.350Z,108
2019-03-11T11:25:51.541Z,100
2019-03-11T11:27:03.745Z,92
2019-03-11T11:28:15.951Z,84
2019-03-11T11:29:28.131Z,100
2019-03-11T11:30:40.034Z,96
2019-03-11T11:31:52.528Z,92
2019-03-11T11:33:04.071Z,80
2019-03-11T11:34:16.917Z,68
2019-03-11T11:35:29.121Z,60
2019-03-11T11:36:41.307Z,52
2019-03-11T11:37:53.498Z,68
2019-03-11T11:39:05.692Z,76
2019-03-11T11:40:17.891Z,80
2019-03-11T11:41:30.088Z,84
2019-03-11T11:42:42.284Z,80
2019-03-11T11:43:54.479Z,80
2019-03-11T11:45:06.067Z,76
2019-03-11T11:46:18.870Z,84
2019-03-11T11:47:31.064Z,88
2019-03-11T11:48:43.255Z,88
2019-03-11T11:49:55.454Z,96
2019-03-11T11:51:07.649Z,104
2019-03-11T11:52:19.000Z,104
2019-03-11T11:53:32.044Z,100
2019-03-11T11:54:44.239Z,96
2019-03-11T11:55:56.435Z,92
2019-03-11T11:57:08.634Z,96
2019-03-11T11:58:20.083Z,92
2019-03-11T11:59:33.000Z,100
2019-03-11T12:00:45.218Z,112
2019-03-11T12:01:57.408Z,120
2019-03-11T12:03:09.611Z,136
2019-03-11T12:05:33.995Z,184
2019-03-11T12:06:46.224Z,212
2019-03-11T12:07:58.385Z,228
2019-03-11T12:09:10.588Z,228
2019-03-11T12:10:22.777Z,220
2019-03-11T12:11:34.973Z,228
2019-03-11T12:12:47.000Z,224
2019-03-11T12:13:59.359Z,216
2019-03-11T12:16:23.759Z,212
2019-03-11T12:17:35.954Z,184
2019-03-11T12:18:48.152Z,172
2019-03-11T12:20:00.336Z,172
2019-03-11T12:21:12.543Z,156
2019-03-11T12:23:36.928Z,128
2019-03-11T12:24:49.134Z,128
2019-03-11T12:26:01.032Z,140
2019-03-11T12:27:13.515Z,144
2019-03-11T12:28:25.708Z,152
2019-03-11T12:29:37.902Z,156
2019-03-11T12:30:50.096Z,156
2019-03-11T12:32:02.300Z,156
2019-03-11T12:33:14.498Z,160
2019-03-11T12:35:38.890Z,164
2019-03-11T12:36:51.082Z,184
2019-03-11T12:38:03.286Z,168
2019-03-11T12:39:15.470Z,184
2019-03-11T12:40:27.667Z,212
2019-03-11T12:41:39.878Z,232
2019-03-11T12:42:52.000Z,208
2019-03-11T12:44:04.265Z,208
2019-03-11T12:45:16.455Z,196
2019-03-11T12:46:28.064Z,168
2019-03-11T12:47:40.843Z,164
2019-03-11T12:48:53.037Z,132
2019-03-11T12:50:05.234Z,124
2019-03-11T12:51:17.428Z,116
2019-03-11T12:52:29.625Z,120
2019-03-11T12:53:41.821Z,132
2019-03-11T12:54:54.000Z,148
2019-03-11T12:56:06.212Z,144
2019-03-11T12:57:18.404Z,140
2019-03-11T12:58:30.608Z,136
2019-03-11T12:59:42.007Z,136
2019-03-11T13:00:54.099Z,148
2019-03-11T13:02:07.193Z,156
2019-03-11T13:03:19.003Z,164
2019-03-11T13:04:31.582Z,180
2019-03-11T13:05:43.774Z,200
2019-03-11T13:06:55.097Z,216
2019-03-11T13:08:08.166Z,220
2019-03-11T13:09:20.358Z,240
2019-03-11T13:10:32.560Z,256
2019-03-11T13:11:44.074Z,284
2019-03-11T13:12:56.952Z,288
2019-03-11T13:14:09.131Z,296
2019-03-11T13:15:21.337Z,240
2019-03-11T13:16:33.515Z,216
2019-03-11T13:17:45.000Z,212
2019-03-11T13:18:57.000Z,184
2019-03-11T13:20:10.122Z,156
2019-03-11T13:21:22.301Z,120
2019-03-11T13:22:34.495Z,104
2019-03-11T13:23:46.068Z,84
2019-03-11T13:24:58.874Z,88
2019-03-11T13:26:11.007Z,76
2019-03-11T13:27:23.263Z,84
2019-03-11T13:28:35.478Z,76
2019-03-11T13:29:47.649Z,84
2019-03-11T13:30:59.850Z,76
2019-03-11T13:32:12.035Z,80
2019-03-11T13:33:24.023Z,64
2019-03-11T13:34:36.426Z,68
2019-03-11T13:35:48.623Z,76
2019-03-11T13:38:13.011Z,96
2019-03-11T13:39:25.202Z,112
2019-03-11T13:40:37.407Z,124
2019-03-11T13:41:49.590Z,136
2019-03-11T13:43:01.792Z,140
2019-03-11T13:44:13.976Z,156
2019-03-11T13:45:26.173Z,168
2019-03-11T13:46:38.036Z,196
2019-03-11T13:47:50.556Z,208
2019-03-11T13:49:02.756Z,240
2019-03-11T13:50:14.943Z,260
2019-03-11T13:51:27.150Z,268
2019-03-11T13:52:39.034Z,260
2019-03-11T13:53:51.530Z,248
2019-03-11T13:55:03.072Z,256
2019-03-11T13:56:15.918Z,244
2019-03-11T13:57:28.104Z,224
2019-03-11T13:58:40.301Z,256
2019-03-11T13:59:52.495Z,348
2019-03-11T14:01:04.710Z,452
2019-03-11T14:02:16.910Z,584
2019-03-11T14:03:29.077Z,328
2019-03-11T14:04:41.269Z,536
2019-03-11T14:05:53.462Z,560
2019-03-11T14:07:05.658Z,376
2019-03-11T14:08:17.852Z,300
2019-03-11T14:09:30.053Z,340
2019-03-11T14:10:42.245Z,312
2019-03-11T14:11:54.433Z,312
2019-03-11T14:13:06.629Z,324
2019-03-11T14:14:18.823Z,320
2019-03-11T14:15:31.015Z,340
2019-03-11T14:16:43.207Z,320
2019-03-11T14:17:55.418Z,296
2019-03-11T14:19:07.604Z,260
2019-03-11T14:20:19.790Z,244
2019-03-11T14:21:31.981Z,240
2019-03-11T14:22:44.178Z,244
2019-03-11T14:23:56.373Z,284
2019-03-11T14:25:08.566Z,280
2019-03-11T14:26:20.762Z,296
2019-03-11T14:27:32.958Z,312
2019-03-11T14:28:45.001Z,248
2019-03-11T14:29:57.341Z,276
2019-03-11T14:31:09.534Z,324
2019-03-11T14:32:21.721Z,416
2019-03-11T14:33:33.919Z,824
2019-03-11T14:34:46.111Z,1072
2019-03-11T14:35:58.308Z,1076
2019-03-11T14:37:10.501Z,1252
2019-03-11T14:38:22.697Z,4668
2019-03-11T14:39:34.088Z,5152
2019-03-11T14:40:47.086Z,5252
2019-03-11T14:41:59.279Z,5040
2019-03-11T14:43:11.047Z,4860
2019-03-11T14:44:23.665Z,3056
2019-03-11T14:45:35.860Z,656
2019-03-11T14:46:48.046Z,832
2019-03-11T14:48:00.002Z,612
2019-03-11T14:49:12.442Z,992
2019-03-11T14:50:24.648Z,3460
2019-03-11T14:51:36.822Z,596
2019-03-11T14:52:49.041Z,484
2019-03-11T14:54:01.021Z,1532
2019-03-11T14:56:25.597Z,1284
2019-03-11T14:57:37.789Z,3832
2019-03-11T15:00:02.185Z,1384
2019-03-11T15:01:14.372Z,1452
2019-03-11T15:02:26.576Z,920
2019-03-11T15:03:38.755Z,2348
2019-03-11T15:04:50.953Z,1684
2019-03-11T15:06:03.015Z,1364
2019-03-11T15:07:15.000Z,1012
2019-03-11T15:08:27.530Z,920
2019-03-11T15:09:39.735Z,2056
2019-03-11T15:10:51.919Z,488
2019-03-11T15:12:04.115Z,276
2019-03-11T15:13:16.310Z,208
2019-03-11T15:14:28.507Z,212
2019-03-11T15:15:40.693Z,212
2019-03-11T15:16:52.890Z,212
2019-03-11T15:18:05.081Z,296
2019-03-11T15:19:17.027Z,472
2019-03-11T15:20:29.466Z,436
2019-03-11T15:21:41.667Z,256
2019-03-11T15:25:18.249Z,264
2019-03-11T15:26:30.443Z,200
2019-03-11T15:27:42.645Z,192
2019-03-11T15:28:54.821Z,172
2019-03-11T15:30:07.016Z,176
2019-03-11T15:31:19.213Z,192
2019-03-11T15:32:31.416Z,220
2019-03-11T15:33:43.604Z,256
2019-03-11T15:34:56.435Z,324
2019-03-11T15:36:07.986Z,372
2019-03-11T15:37:20.180Z,408
2019-03-11T15:38:32.375Z,432
2019-03-11T15:39:44.057Z,488
2019-03-11T15:40:56.076Z,436
2019-03-11T15:42:08.982Z,1184
2019-03-11T15:43:21.148Z,1592
2019-03-11T15:44:33.348Z,1696
2019-03-11T15:45:45.654Z,1996
2019-03-11T15:46:57.731Z,1740
2019-03-11T15:48:09.926Z,1796
2019-03-11T15:49:22.124Z,652
2019-03-11T15:50:34.306Z,2096
2019-03-11T15:51:46.504Z,1716
2019-03-11T15:52:58.694Z,668
2019-03-11T15:54:10.896Z,460
2019-03-11T15:55:23.083Z,636
2019-03-11T15:56:35.292Z,468
2019-03-11T15:57:47.482Z,300
2019-03-11T15:58:59.666Z,284
2019-03-11T16:00:11.861Z,276
2019-03-11T16:01:24.061Z,232
2019-03-11T16:02:36.261Z,188
2019-03-11T16:03:48.000Z,160
2019-03-11T16:05:00.635Z,140
2019-03-11T16:06:12.833Z,140
2019-03-11T16:07:25.026Z,132
2019-03-11T16:08:37.211Z,132
2019-03-11T16:09:49.413Z,132
2019-03-11T16:11:01.603Z,132
2019-03-11T16:12:13.801Z,116
2019-03-11T16:13:25.995Z,108
2019-03-11T16:14:38.187Z,96
2019-03-11T16:15:50.000Z,88
2019-03-11T16:17:02.567Z,92
2019-03-11T16:18:14.772Z,96
2019-03-11T16:19:27.042Z,216
2019-03-11T16:20:39.015Z,136
2019-03-11T16:23:03.539Z,872
2019-03-11T16:24:15.740Z,804
2019-03-11T16:25:27.931Z,292
2019-03-11T16:26:40.120Z,156
2019-03-11T16:27:52.000Z,120
2019-03-11T16:29:04.515Z,112
2019-03-11T16:30:16.697Z,108
2019-03-11T16:31:28.896Z,116
2019-03-11T16:32:41.092Z,144
2019-03-11T16:33:53.283Z,112
2019-03-11T16:35:05.474Z,88
2019-03-11T16:36:17.675Z,64
2019-03-11T16:37:29.867Z,56
2019-03-11T16:38:42.054Z,56
2019-03-11T16:39:54.000Z,52
2019-03-11T16:41:06.045Z,44
2019-03-11T16:42:18.064Z,44
2019-03-11T16:43:30.084Z,40
2019-03-11T16:44:43.043Z,36
2019-03-11T16:45:55.022Z,32
2019-03-11T16:47:07.416Z,28
2019-03-11T16:48:19.605Z,20
2019-03-11T16:49:31.797Z,20
2019-03-11T16:50:43.996Z,16
2019-03-11T16:51:56.186Z,16
2019-03-11T16:53:08.395Z,16
2019-03-11T16:54:20.580Z,12
2019-03-11T16:55:32.077Z,12
2019-03-11T16:56:44.096Z,12
2019-03-11T16:57:57.156Z,8
2019-03-11T16:59:09.357Z,8
2019-03-11T17:00:21.548Z,8
2019-03-11T17:01:33.735Z,4
2019-03-11T17:02:45.932Z,4
2019-03-11T17:03:58.119Z,4
2019-03-11T17:05:10.003Z,4
2019-03-11T17:06:22.508Z,4
2019-03-11T17:07:34.709Z,4
2019-03-11T17:08:46.892Z,4
2019-03-11T17:09:59.093Z,0
2019-03-11T17:11:11.282Z,0
2019-03-11T17:12:23.474Z,0
2019-03-11T17:13:35.694Z,0
2019-03-11T17:14:48.000Z,4
2019-03-11T17:16:00.064Z,0
2019-03-11T17:17:12.280Z,0
2019-03-11T17:18:24.445Z,0
2019-03-11T17:19:36.647Z,0
2019-03-11T17:20:48.839Z,0
2019-03-11T17:22:01.027Z,0
2019-03-11T17:23:13.228Z,0
2019-03-11T17:24:25.409Z,0
2019-03-11T17:25:37.604Z,0
2019-03-11T17:26:49.804Z,0
2019-03-11T17:28:01.000Z,0
2019-03-11T17:29:14.191Z,0
2019-03-11T17:30:26.385Z,0
2019-03-11T17:31:38.576Z,0
2019-03-11T17:32:50.774Z,384
2019-03-11T17:34:02.964Z,380
2019-03-11T17:35:15.169Z,380
2019-03-11T17:36:27.357Z,380
2019-03-11T17:37:39.559Z,0
2019-03-11T17:38:51.752Z,0
2019-03-11T17:40:03.943Z,0
2019-03-11T17:41:16.012Z,0
2019-03-11T17:42:28.032Z,0
2019-03-11T17:43:40.517Z,0
2019-03-11T17:44:52.705Z,0
2019-03-11T17:46:04.898Z,0
2019-03-11T17:47:17.095Z,0
2019-03-11T17:48:29.290Z,0
2019-03-11T17:49:41.480Z,0
2019-03-11T17:50:53.683Z,0
2019-03-11T17:52:05.882Z,0
2019-03-11T17:53:18.059Z,0
2019-03-11T17:54:30.252Z,0